Pilar, Brazil
Current Conditions -  °F | °C
As of 9:00 AM on Thursday 29 Jan 2015 (Local Time) from SBMO Reporting Station
Light Rain Light Rain  
Wind Chill: 77°   Ceiling: 2000
Heat Index: 78°   Visibility: 2.5mi
Dew Point: 73°   Wind: 7mph
Humidity: 89%   Direction: 130°SE
Pressure: 29.94"   Gusts: NA
Location:  9.6°S, 35.96°W
Report Text: SBMO 291200Z 13006KT 4000 -RA SCT012 BKN020 25/23 Q1014
Loading
Personal Weather Stations






























Interactive Weather Map New forecast layout! Learn more

10-Day Weather Forecast

Advertisements
Track Severe Weather on mobile